createdAt,value
2022-10-26T00:00:42.025Z,10.70
2022-10-26T00:01:42.143Z,10.40
2022-10-26T00:02:42.050Z,10.50
2022-10-26T00:03:41.974Z,10.30
2022-10-26T00:04:41.947Z,10.10
2022-10-26T00:05:41.927Z,9.90
2022-10-26T00:06:41.904Z,10.80
2022-10-26T00:07:42.001Z,10.80
2022-10-26T00:08:41.869Z,10.30
2022-10-26T00:09:41.849Z,10.90
2022-10-26T00:10:41.824Z,9.90
2022-10-26T00:11:41.808Z,10.00
2022-10-26T00:12:41.786Z,10.00
2022-10-26T00:13:41.764Z,10.20
2022-10-26T00:14:41.774Z,10.60
2022-10-26T00:15:41.730Z,9.60
2022-10-26T00:16:41.707Z,10.70
2022-10-26T00:17:41.689Z,9.80
2022-10-26T00:18:41.669Z,9.60
2022-10-26T00:19:41.647Z,10.30
2022-10-26T00:20:41.625Z,10.00
2022-10-26T00:21:41.608Z,10.40
2022-10-26T00:22:41.589Z,9.70
2022-10-26T00:23:41.575Z,10.10
2022-10-26T00:24:41.550Z,9.80
2022-10-26T00:25:41.532Z,9.20
2022-10-26T00:26:41.506Z,9.40
2022-10-26T00:27:41.491Z,9.40
2022-10-26T00:28:41.469Z,9.30
2022-10-26T00:29:41.451Z,9.90
2022-10-26T00:30:41.446Z,10.10
2022-10-26T00:31:41.409Z,10.00
2022-10-26T00:32:41.416Z,9.30
2022-10-26T00:33:41.368Z,9.90
2022-10-26T00:34:41.349Z,9.70
2022-10-26T00:35:45.869Z,8.90
2022-10-26T00:36:41.311Z,9.20
2022-10-26T00:37:41.290Z,10.00
2022-10-26T00:38:41.269Z,9.30
2022-10-26T00:39:41.249Z,9.00
2022-10-26T00:40:41.230Z,9.10
2022-10-26T00:41:41.208Z,9.10
2022-10-26T00:42:41.187Z,9.20
2022-10-26T00:43:41.169Z,8.60
2022-10-26T00:44:41.147Z,9.10
2022-10-26T00:45:41.127Z,9.70
2022-10-26T00:46:41.125Z,9.30
2022-10-26T00:47:41.086Z,9.30
2022-10-26T00:48:41.066Z,8.50
2022-10-26T00:49:41.053Z,8.80
2022-10-26T00:50:41.021Z,8.80
2022-10-26T00:51:41.003Z,8.40
2022-10-26T00:52:40.984Z,8.40
2022-10-26T00:53:40.966Z,8.80
2022-10-26T00:54:40.945Z,8.50
2022-10-26T00:55:40.923Z,8.70
2022-10-26T00:56:40.906Z,8.60
2022-10-26T00:57:40.893Z,8.40
2022-10-26T00:58:40.870Z,8.60
2022-10-26T00:59:40.847Z,8.80
2022-10-26T01:00:40.829Z,7.90
2022-10-26T01:01:40.924Z,8.10
2022-10-26T01:02:40.806Z,7.80
2022-10-26T01:03:40.867Z,7.60
2022-10-26T01:04:40.752Z,7.60
2022-10-26T01:05:40.732Z,7.50
2022-10-26T01:06:40.707Z,8.00
2022-10-26T01:07:40.684Z,8.10
2022-10-26T01:08:40.665Z,7.70
2022-10-26T01:09:40.646Z,7.80
2022-10-26T01:10:40.626Z,7.90
2022-10-26T01:11:40.604Z,7.60
2022-10-26T01:12:40.589Z,7.90
2022-10-26T01:13:40.572Z,7.80
2022-10-26T01:14:40.546Z,8.30
2022-10-26T01:15:40.526Z,7.50
2022-10-26T01:16:42.686Z,7.60
2022-10-26T01:17:40.484Z,7.40
2022-10-26T01:18:40.485Z,7.00
2022-10-26T01:19:40.446Z,7.50
2022-10-26T01:20:40.424Z,7.60
2022-10-26T01:21:40.405Z,7.40
2022-10-26T01:22:40.386Z,7.30
2022-10-26T01:23:40.367Z,7.70
2022-10-26T01:24:40.347Z,7.10
2022-10-26T01:25:40.327Z,7.30
2022-10-26T01:26:40.376Z,7.70
2022-10-26T01:27:40.287Z,7.10
2022-10-26T01:28:40.270Z,7.30
2022-10-26T01:29:40.243Z,7.40
2022-10-26T01:30:40.227Z,7.10
2022-10-26T01:31:40.202Z,7.00
2022-10-26T01:32:40.186Z,7.30
2022-10-26T01:33:40.163Z,7.60
2022-10-26T01:34:40.174Z,7.50
2022-10-26T01:35:40.125Z,7.00
2022-10-26T01:36:40.106Z,7.10
2022-10-26T01:37:40.086Z,7.20
2022-10-26T01:38:40.063Z,6.80
2022-10-26T01:39:40.043Z,6.90
2022-10-26T01:40:40.027Z,7.30
2022-10-26T01:41:40.008Z,7.00
2022-10-26T01:42:39.985Z,6.80
2022-10-26T01:43:39.965Z,6.70
2022-10-26T01:44:39.951Z,6.70
2022-10-26T01:45:39.923Z,7.00
2022-10-26T01:46:39.908Z,7.20
2022-10-26T01:47:39.888Z,6.30
2022-10-26T01:48:39.867Z,6.70
2022-10-26T01:49:39.847Z,7.50
2022-10-26T01:50:39.843Z,7.00
2022-10-26T01:51:39.803Z,6.60
2022-10-26T01:52:39.784Z,6.80
2022-10-26T01:53:39.765Z,6.50
2022-10-26T01:54:39.772Z,6.50
2022-10-26T01:55:39.725Z,6.80
2022-10-26T01:56:39.703Z,6.70
2022-10-26T01:57:39.692Z,6.10
2022-10-26T01:58:39.664Z,7.00
2022-10-26T01:59:39.647Z,7.00
2022-10-26T02:00:39.625Z,6.70
2022-10-26T02:01:39.656Z,7.00
2022-10-26T02:02:39.583Z,7.30
2022-10-26T02:03:39.651Z,6.20
2022-10-26T02:04:39.539Z,7.10
2022-10-26T02:05:39.520Z,6.60
2022-10-26T02:06:39.524Z,7.00
2022-10-26T02:07:39.485Z,6.60
2022-10-26T02:08:39.466Z,6.70
2022-10-26T02:09:39.448Z,6.50
2022-10-26T02:10:39.423Z,7.00
2022-10-26T02:11:39.399Z,6.70
2022-10-26T02:12:39.390Z,6.50
2022-10-26T02:13:39.369Z,6.40
2022-10-26T02:14:39.344Z,6.20
2022-10-26T02:15:39.323Z,6.30
2022-10-26T02:16:39.303Z,6.60
2022-10-26T02:17:39.279Z,6.70
2022-10-26T02:18:39.264Z,6.60
2022-10-26T02:19:39.241Z,6.30
2022-10-26T02:20:39.225Z,6.70
2022-10-26T02:21:39.206Z,7.10
2022-10-26T02:22:39.204Z,6.30
2022-10-26T02:23:39.162Z,6.20
2022-10-26T02:24:39.140Z,6.90
2022-10-26T02:25:39.125Z,6.30
2022-10-26T02:26:39.102Z,6.90
2022-10-26T02:27:39.085Z,6.60
2022-10-26T02:28:39.066Z,6.70
2022-10-26T02:29:39.040Z,7.10
2022-10-26T02:30:39.022Z,6.50
2022-10-26T02:31:39.005Z,7.00
2022-10-26T02:32:38.985Z,6.70
2022-10-26T02:33:38.988Z,6.50
2022-10-26T02:34:38.942Z,6.80
2022-10-26T02:35:38.928Z,6.60
2022-10-26T02:36:38.896Z,6.30
2022-10-26T02:37:38.876Z,6.50
2022-10-26T02:38:38.880Z,6.20
2022-10-26T02:39:38.833Z,6.90
2022-10-26T02:40:38.823Z,6.60
2022-10-26T02:41:38.802Z,6.50
2022-10-26T02:42:38.778Z,6.90
2022-10-26T02:43:38.755Z,6.60
2022-10-26T02:44:38.737Z,6.90
2022-10-26T02:45:38.716Z,7.10
2022-10-26T02:46:38.695Z,7.10
2022-10-26T02:47:38.680Z,6.10
2022-10-26T02:48:38.654Z,6.80
2022-10-26T02:49:38.637Z,6.80
2022-10-26T02:50:38.614Z,6.80
2022-10-26T02:51:38.656Z,6.70
2022-10-26T02:52:38.580Z,6.40
2022-10-26T02:53:38.555Z,6.70
2022-10-26T02:54:38.561Z,6.70
2022-10-26T02:55:38.515Z,6.50
2022-10-26T02:56:38.498Z,6.90
2022-10-26T02:57:38.475Z,6.20
2022-10-26T02:58:38.453Z,6.80
2022-10-26T02:59:38.431Z,6.80
2022-10-26T03:00:38.412Z,6.30
2022-10-26T03:01:38.459Z,6.70
2022-10-26T03:02:38.375Z,6.50
2022-10-26T03:03:38.439Z,6.70
2022-10-26T03:04:38.333Z,6.60
2022-10-26T03:05:38.314Z,6.80
2022-10-26T03:06:38.295Z,6.50
2022-10-26T03:07:38.269Z,6.00
2022-10-26T03:08:38.255Z,6.70
2022-10-26T03:09:38.231Z,6.40
2022-10-26T03:10:38.233Z,6.70
2022-10-26T03:11:38.191Z,6.00
2022-10-26T03:12:38.172Z,7.10
2022-10-26T03:13:38.155Z,7.00
2022-10-26T03:14:38.130Z,6.20
2022-10-26T03:15:38.108Z,6.60
2022-10-26T03:16:38.153Z,6.50
2022-10-26T03:17:38.072Z,6.90
2022-10-26T03:18:38.063Z,6.30
2022-10-26T03:19:38.037Z,6.60
2022-10-26T03:20:38.011Z,6.40
2022-10-26T03:21:37.991Z,6.40
2022-10-26T03:22:37.972Z,6.40
2022-10-26T03:23:37.958Z,6.90
2022-10-26T03:24:37.933Z,6.40
2022-10-26T03:25:37.911Z,6.80
2022-10-26T03:26:37.912Z,6.90
2022-10-26T03:27:37.878Z,6.50
2022-10-26T03:28:37.853Z,6.60
2022-10-26T03:29:37.829Z,6.70
2022-10-26T03:30:37.811Z,5.90
2022-10-26T03:31:37.791Z,6.30
2022-10-26T03:32:37.774Z,6.90
2022-10-26T03:34:37.729Z,6.40
2022-10-26T03:35:37.711Z,6.80
2022-10-26T03:36:37.690Z,6.40
2022-10-26T03:37:37.682Z,6.10
2022-10-26T03:38:37.649Z,7.10
2022-10-26T03:39:37.630Z,6.70
2022-10-26T03:40:37.609Z,6.60
2022-10-26T03:41:37.590Z,6.20
2022-10-26T03:42:37.590Z,6.80
2022-10-26T03:43:37.548Z,6.10
2022-10-26T03:44:37.528Z,6.60
2022-10-26T03:45:37.509Z,6.80
2022-10-26T03:46:37.487Z,6.70
2022-10-26T03:47:37.468Z,6.80
2022-10-26T03:48:37.447Z,6.50
2022-10-26T03:49:37.430Z,6.80
2022-10-26T03:50:37.406Z,6.20
2022-10-26T03:51:37.385Z,6.50
2022-10-26T03:52:37.368Z,6.00
2022-10-26T03:53:37.348Z,5.70
2022-10-26T03:54:37.328Z,6.30
2022-10-26T03:55:37.310Z,6.50
2022-10-26T03:56:37.296Z,6.60
2022-10-26T03:57:37.272Z,6.30
2022-10-26T03:58:37.273Z,6.50
2022-10-26T03:59:37.231Z,6.20
2022-10-26T04:00:37.208Z,6.30
2022-10-26T04:01:37.293Z,6.50
2022-10-26T04:02:37.170Z,6.40
2022-10-26T04:03:37.157Z,6.80
2022-10-26T04:04:37.246Z,6.60
2022-10-26T04:05:37.118Z,6.30
2022-10-26T04:06:37.149Z,6.40
2022-10-26T04:07:37.072Z,6.10
2022-10-26T04:08:37.049Z,6.10
2022-10-26T04:09:37.031Z,6.30
2022-10-26T04:10:37.007Z,5.70
2022-10-26T04:11:36.986Z,6.40
2022-10-26T04:12:36.969Z,6.40
2022-10-26T04:13:36.954Z,6.70
2022-10-26T04:14:36.949Z,6.40
2022-10-26T04:15:36.909Z,6.60
2022-10-26T04:16:36.893Z,6.50
2022-10-26T04:17:36.869Z,8.00
2022-10-26T04:18:36.854Z,14.00
2022-10-26T04:19:36.830Z,7.40
2022-10-26T04:20:36.813Z,7.00
2022-10-26T04:21:36.789Z,8.80
2022-10-26T04:22:36.768Z,12.90
2022-10-26T04:23:36.750Z,9.40
2022-10-26T04:24:36.724Z,7.60
2022-10-26T04:25:36.708Z,6.80
2022-10-26T04:26:36.684Z,6.80
2022-10-26T04:27:36.668Z,6.50
2022-10-26T04:28:36.649Z,7.40
2022-10-26T04:29:36.628Z,7.00
2022-10-26T04:30:36.626Z,6.70
2022-10-26T04:31:36.632Z,7.20
2022-10-26T04:32:36.574Z,6.90
2022-10-26T04:33:36.552Z,6.30
2022-10-26T04:34:36.531Z,6.40
2022-10-26T04:35:36.514Z,7.00
2022-10-26T04:36:36.493Z,7.00
2022-10-26T04:37:36.469Z,6.40
2022-10-26T04:38:36.454Z,6.60
2022-10-26T04:39:36.425Z,6.90
2022-10-26T04:40:36.411Z,6.90
2022-10-26T04:41:36.392Z,7.00
2022-10-26T04:42:36.380Z,6.70
2022-10-26T04:43:36.346Z,6.30
2022-10-26T04:44:36.327Z,6.30
2022-10-26T04:45:36.308Z,7.10
2022-10-26T04:46:36.306Z,6.60
2022-10-26T04:47:36.266Z,7.10
2022-10-26T04:48:36.250Z,7.10
2022-10-26T04:49:36.227Z,6.80
2022-10-26T04:50:36.209Z,6.80
2022-10-26T04:51:36.187Z,6.70
2022-10-26T04:52:36.167Z,6.40
2022-10-26T04:53:36.156Z,6.50
2022-10-26T04:54:36.133Z,6.90
2022-10-26T04:55:36.104Z,7.00
2022-10-26T04:56:36.164Z,6.80
2022-10-26T04:57:36.068Z,6.60
2022-10-26T04:58:36.045Z,7.20
2022-10-26T04:59:36.023Z,6.50
2022-10-26T05:00:36.002Z,6.70
2022-10-26T05:01:36.088Z,7.40
2022-10-26T05:02:35.986Z,7.00
2022-10-26T05:03:35.946Z,6.90
2022-10-26T05:04:35.927Z,7.10
2022-10-26T05:05:35.910Z,7.10
2022-10-26T05:06:35.882Z,7.10
2022-10-26T05:07:35.878Z,7.00
2022-10-26T05:08:35.843Z,6.90
2022-10-26T05:09:35.826Z,7.40
2022-10-26T05:10:35.805Z,7.10
2022-10-26T05:11:35.784Z,7.50
2022-10-26T05:12:35.764Z,7.10
2022-10-26T05:13:35.754Z,7.00
2022-10-26T05:14:35.724Z,7.30
2022-10-26T05:15:35.708Z,7.30
2022-10-26T05:16:35.695Z,7.30
2022-10-26T05:17:35.668Z,7.20
2022-10-26T05:18:35.661Z,6.60
2022-10-26T05:19:35.624Z,7.50
2022-10-26T05:20:35.605Z,7.50
2022-10-26T05:21:35.633Z,7.60
2022-10-26T05:22:35.566Z,7.30
2022-10-26T05:23:35.546Z,7.40
2022-10-26T05:24:35.524Z,7.90
2022-10-26T05:25:35.516Z,7.40
2022-10-26T05:26:35.485Z,6.90
2022-10-26T05:27:35.466Z,7.30
2022-10-26T05:28:35.448Z,6.70
2022-10-26T05:29:35.426Z,7.00
2022-10-26T05:30:35.407Z,7.00
2022-10-26T05:31:35.382Z,6.70
2022-10-26T05:32:35.369Z,6.80
2022-10-26T05:33:35.344Z,6.90
2022-10-26T05:34:38.227Z,6.90
2022-10-26T05:35:35.324Z,7.30
2022-10-26T05:36:35.281Z,6.90
2022-10-26T05:37:35.263Z,6.30
2022-10-26T05:38:35.245Z,7.30
2022-10-26T05:39:35.224Z,7.30
2022-10-26T05:40:35.204Z,7.20
2022-10-26T05:41:35.183Z,7.00
2022-10-26T05:42:35.162Z,6.70
2022-10-26T05:43:35.138Z,6.70
2022-10-26T05:44:35.125Z,6.70
2022-10-26T05:45:35.105Z,7.10
2022-10-26T05:46:35.086Z,7.10
2022-10-26T05:47:35.062Z,6.90
2022-10-26T05:48:35.040Z,7.50
2022-10-26T05:49:35.028Z,7.10
2022-10-26T05:50:35.025Z,7.50
2022-10-26T05:51:34.986Z,7.30
2022-10-26T05:52:34.961Z,7.10
2022-10-26T05:53:34.941Z,7.10
2022-10-26T05:54:34.923Z,7.60
2022-10-26T05:55:34.913Z,7.00
2022-10-26T05:56:34.886Z,6.80
2022-10-26T05:57:34.867Z,6.90
2022-10-26T05:58:34.847Z,6.80
2022-10-26T05:59:34.824Z,6.90
2022-10-26T06:00:34.806Z,7.00
2022-10-26T06:01:34.930Z,6.40
2022-10-26T06:02:34.846Z,6.90
2022-10-26T06:03:34.744Z,7.00
2022-10-26T06:04:34.719Z,6.40
2022-10-26T06:05:34.702Z,6.50
2022-10-26T06:06:34.706Z,7.00
2022-10-26T06:07:34.659Z,6.70
2022-10-26T06:08:34.646Z,7.10
2022-10-26T06:09:34.618Z,6.80
2022-10-26T06:10:34.603Z,6.80
2022-10-26T06:11:34.583Z,7.00
2022-10-26T06:12:34.563Z,7.10
2022-10-26T06:13:34.544Z,6.80
2022-10-26T06:14:34.522Z,6.60
2022-10-26T06:15:34.509Z,6.30
2022-10-26T06:16:34.485Z,6.80
2022-10-26T06:17:34.462Z,7.10
2022-10-26T06:18:34.447Z,6.60
2022-10-26T06:19:34.434Z,6.90
2022-10-26T06:20:34.407Z,6.60
2022-10-26T06:21:34.384Z,6.70
2022-10-26T06:22:34.384Z,6.60
2022-10-26T06:23:34.345Z,6.50
2022-10-26T06:24:34.325Z,6.40
2022-10-26T06:25:34.307Z,6.40
2022-10-26T06:26:34.284Z,6.80
2022-10-26T06:27:34.267Z,6.20
2022-10-26T06:28:34.248Z,6.90
2022-10-26T06:29:34.225Z,6.90
2022-10-26T06:30:34.202Z,6.30
2022-10-26T06:31:34.183Z,6.70
2022-10-26T06:32:34.162Z,6.30
2022-10-26T06:33:34.149Z,6.80
2022-10-26T06:34:34.127Z,7.00
2022-10-26T06:35:34.108Z,6.70
2022-10-26T06:36:34.088Z,6.90
2022-10-26T06:37:34.066Z,6.70
2022-10-26T06:38:34.068Z,6.60
2022-10-26T06:39:34.028Z,6.60
2022-10-26T06:40:34.007Z,6.50
2022-10-26T06:41:33.990Z,6.40
2022-10-26T06:42:33.970Z,6.70
2022-10-26T06:43:33.946Z,6.70
2022-10-26T06:44:33.929Z,6.40
2022-10-26T06:45:33.903Z,6.30
2022-10-26T06:46:33.897Z,6.40
2022-10-26T06:47:33.864Z,6.20
2022-10-26T06:48:33.847Z,6.30
2022-10-26T06:49:33.830Z,6.30
2022-10-26T06:50:33.806Z,6.90
2022-10-26T06:51:33.786Z,6.00
2022-10-26T06:52:33.776Z,7.00
2022-10-26T06:53:33.841Z,6.30
2022-10-26T06:54:33.747Z,5.80
2022-10-26T06:55:33.706Z,6.50
2022-10-26T06:56:33.688Z,6.30
2022-10-26T06:57:33.677Z,6.10
2022-10-26T06:58:33.651Z,6.10
2022-10-26T06:59:33.626Z,6.40
2022-10-26T07:00:33.614Z,6.20
2022-10-26T07:01:33.724Z,5.90
2022-10-26T07:02:33.756Z,5.90
2022-10-26T07:03:33.554Z,6.00
2022-10-26T07:04:33.536Z,5.50
2022-10-26T07:05:33.516Z,6.20
2022-10-26T07:06:35.586Z,5.60
2022-10-26T07:07:33.474Z,6.10
2022-10-26T07:08:33.462Z,5.90
2022-10-26T07:09:33.437Z,5.40
2022-10-26T07:10:33.445Z,5.90
2022-10-26T07:11:33.398Z,5.50
2022-10-26T07:12:33.395Z,5.40
2022-10-26T07:13:33.361Z,5.50
2022-10-26T07:14:33.341Z,5.90
2022-10-26T07:15:33.321Z,6.30
2022-10-26T07:16:33.303Z,5.90
2022-10-26T07:17:33.283Z,5.90
2022-10-26T07:18:33.264Z,6.10
2022-10-26T07:19:33.253Z,5.70
2022-10-26T07:20:33.226Z,5.80
2022-10-26T07:21:33.203Z,6.40
2022-10-26T07:22:33.196Z,6.50
2022-10-26T07:23:33.231Z,5.40
2022-10-26T07:24:33.152Z,6.20
2022-10-26T07:25:33.129Z,5.90
2022-10-26T07:26:33.129Z,6.00
2022-10-26T07:27:33.087Z,6.30
2022-10-26T07:28:33.075Z,5.80
2022-10-26T07:29:33.057Z,5.90
2022-10-26T07:30:33.031Z,6.10
2022-10-26T07:31:33.008Z,5.80
2022-10-26T07:32:33.002Z,6.20
2022-10-26T07:33:35.818Z,5.70
2022-10-26T07:34:32.968Z,6.00
2022-10-26T07:35:32.931Z,5.90
2022-10-26T07:36:32.913Z,5.70
2022-10-26T07:37:32.888Z,5.50
2022-10-26T07:38:32.871Z,6.00
2022-10-26T07:39:32.955Z,6.00
2022-10-26T07:40:32.832Z,6.10
2022-10-26T07:41:32.812Z,5.60
2022-10-26T07:42:32.830Z,6.00
2022-10-26T07:43:32.784Z,5.80
2022-10-26T07:44:32.773Z,5.60
2022-10-26T07:45:32.740Z,6.00
2022-10-26T07:46:32.715Z,6.00
2022-10-26T07:47:32.700Z,5.80
2022-10-26T07:48:32.747Z,5.70
2022-10-26T07:49:32.663Z,5.60
2022-10-26T07:50:32.642Z,5.80
2022-10-26T07:51:32.622Z,5.60
2022-10-26T07:52:32.598Z,5.90
2022-10-26T07:53:32.581Z,5.50
2022-10-26T07:54:32.560Z,5.90
2022-10-26T07:55:32.542Z,5.40
2022-10-26T07:56:32.526Z,5.20
2022-10-26T07:57:32.507Z,5.70
2022-10-26T07:58:32.508Z,5.90
2022-10-26T07:59:32.480Z,5.40
2022-10-26T08:00:32.528Z,5.90
2022-10-26T08:01:32.684Z,5.20
2022-10-26T08:02:32.416Z,5.20
2022-10-26T08:03:32.392Z,5.50
2022-10-26T08:04:32.373Z,5.30
2022-10-26T08:06:32.332Z,5.50
2022-10-26T08:07:32.318Z,5.80
2022-10-26T08:08:32.295Z,5.30
2022-10-26T08:09:32.276Z,5.50
2022-10-26T08:10:32.260Z,5.30
2022-10-26T08:11:32.242Z,5.70
2022-10-26T08:12:32.225Z,5.40
2022-10-26T08:13:32.220Z,5.30
2022-10-26T08:14:32.203Z,5.40
2022-10-26T08:15:32.161Z,5.80
2022-10-26T08:16:32.142Z,5.70
2022-10-26T08:17:32.129Z,5.70
2022-10-26T08:18:32.110Z,5.60
2022-10-26T08:19:32.092Z,5.60
2022-10-26T08:20:32.073Z,5.80
2022-10-26T08:21:46.915Z,5.60
2022-10-26T08:22:32.041Z,5.60
2022-10-26T08:23:32.014Z,5.60
2022-10-26T08:24:32.006Z,5.40
2022-10-26T08:25:31.981Z,5.20
2022-10-26T08:26:31.969Z,5.80
2022-10-26T08:27:31.951Z,5.30
2022-10-26T08:28:31.921Z,5.20
2022-10-26T08:29:31.905Z,5.30
2022-10-26T08:30:31.984Z,5.20
2022-10-26T08:31:31.871Z,5.30
2022-10-26T08:32:31.850Z,5.50
2022-10-26T08:33:31.828Z,5.00
2022-10-26T08:34:31.816Z,5.40
2022-10-26T08:35:31.795Z,4.90
2022-10-26T08:36:31.774Z,4.80
2022-10-26T08:37:31.759Z,5.40
2022-10-26T08:38:31.753Z,5.10
2022-10-26T08:39:31.726Z,5.20
2022-10-26T08:40:31.707Z,4.80
2022-10-26T08:41:31.693Z,5.00
2022-10-26T08:42:31.681Z,5.50
2022-10-26T08:43:31.661Z,5.00
2022-10-26T08:44:31.656Z,5.40
2022-10-26T08:45:36.643Z,5.00
2022-10-26T08:46:31.664Z,4.80
2022-10-26T08:47:31.605Z,5.00
2022-10-26T08:48:31.590Z,5.00
2022-10-26T08:49:31.574Z,5.30
2022-10-26T08:50:31.561Z,5.30
2022-10-26T08:51:31.547Z,4.90
2022-10-26T08:52:31.535Z,5.20
2022-10-26T08:53:31.537Z,5.30
2022-10-26T08:54:31.511Z,5.40
2022-10-26T08:55:31.555Z,5.10
2022-10-26T08:56:31.488Z,4.50
2022-10-26T08:57:31.480Z,4.50
2022-10-26T08:58:31.474Z,4.50
2022-10-26T08:59:31.454Z,4.80
2022-10-26T09:00:31.456Z,4.50
2022-10-26T09:01:31.558Z,4.20
2022-10-26T09:02:31.456Z,4.60
2022-10-26T09:03:33.191Z,4.10
2022-10-26T09:04:31.421Z,4.30
2022-10-26T09:05:33.498Z,3.90
2022-10-26T09:06:31.390Z,4.10
2022-10-26T09:07:31.380Z,4.20
2022-10-26T09:08:31.374Z,4.20
2022-10-26T09:09:31.365Z,4.00
2022-10-26T09:10:31.362Z,4.30
2022-10-26T09:11:31.344Z,4.50
2022-10-26T09:12:31.329Z,4.50
2022-10-26T09:13:31.330Z,4.70
2022-10-26T09:14:31.307Z,4.80
2022-10-26T09:15:31.294Z,4.70
2022-10-26T09:16:31.285Z,4.70
2022-10-26T09:17:31.289Z,4.80
2022-10-26T09:18:31.282Z,4.60
2022-10-26T09:19:31.254Z,4.50
2022-10-26T09:20:31.236Z,4.30
2022-10-26T09:21:31.217Z,4.40
2022-10-26T09:22:31.222Z,3.90
2022-10-26T09:23:31.198Z,4.00
2022-10-26T09:24:31.192Z,4.10
2022-10-26T09:25:31.173Z,4.60
2022-10-26T09:26:31.155Z,4.50
2022-10-26T09:27:31.144Z,4.30
2022-10-26T09:28:31.131Z,4.10
2022-10-26T09:29:31.122Z,3.70
2022-10-26T09:30:31.109Z,4.30
2022-10-26T09:31:31.092Z,3.70
2022-10-26T09:32:31.078Z,4.10
2022-10-26T09:33:31.069Z,3.70
2022-10-26T09:34:31.077Z,4.10
2022-10-26T09:35:31.050Z,4.00
2022-10-26T09:36:31.035Z,3.50
2022-10-26T09:37:31.024Z,3.80
2022-10-26T09:38:31.017Z,3.50
2022-10-26T09:39:31.005Z,2.90
2022-10-26T09:40:30.995Z,3.50
2022-10-26T09:41:32.200Z,2.80
2022-10-26T09:42:30.980Z,3.20
2022-10-26T09:43:30.971Z,3.20
2022-10-26T09:44:30.969Z,2.90
2022-10-26T09:45:30.951Z,3.40
2022-10-26T09:46:30.940Z,3.00
2022-10-26T09:47:30.936Z,2.70
2022-10-26T09:48:30.920Z,2.70
2022-10-26T09:49:30.913Z,3.00
2022-10-26T09:50:30.925Z,3.00
2022-10-26T09:51:30.898Z,2.80
2022-10-26T09:52:30.889Z,2.80
2022-10-26T09:53:30.881Z,3.10
2022-10-26T09:54:30.872Z,2.60
2022-10-26T09:55:30.860Z,2.80
2022-10-26T09:56:30.855Z,2.40
2022-10-26T09:57:30.847Z,2.70
2022-10-26T09:58:30.844Z,2.50
2022-10-26T09:59:30.832Z,2.30
2022-10-26T10:00:30.913Z,2.90
2022-10-26T10:01:30.888Z,2.80
2022-10-26T10:02:30.855Z,2.20
2022-10-26T10:03:30.800Z,2.50
2022-10-26T10:04:30.791Z,2.50
2022-10-26T10:05:51.388Z,2.60
2022-10-26T10:06:30.811Z,2.50
2022-10-26T10:07:30.769Z,2.40
2022-10-26T10:08:30.758Z,2.50
2022-10-26T10:09:30.753Z,2.90
2022-10-26T10:10:30.750Z,2.70
2022-10-26T10:11:30.735Z,2.60
2022-10-26T10:12:30.730Z,2.50
2022-10-26T10:13:30.721Z,2.30
2022-10-26T10:14:32.594Z,2.20
2022-10-26T10:15:30.701Z,2.40
2022-10-26T10:16:30.694Z,2.10
2022-10-26T10:17:30.685Z,2.40
2022-10-26T10:18:30.672Z,2.60
2022-10-26T10:19:30.668Z,2.90
2022-10-26T10:20:30.654Z,2.60
2022-10-26T10:21:30.650Z,2.80
2022-10-26T10:22:30.749Z,2.60
2022-10-26T10:23:30.628Z,2.50
2022-10-26T10:24:30.672Z,2.60
2022-10-26T10:25:30.610Z,2.20
2022-10-26T10:26:30.593Z,2.20
2022-10-26T10:27:30.589Z,2.50
2022-10-26T10:28:30.575Z,3.10
2022-10-26T10:29:30.564Z,2.80
2022-10-26T10:30:30.552Z,3.10
2022-10-26T10:31:30.542Z,2.70
2022-10-26T10:32:30.531Z,2.40
2022-10-26T10:33:30.518Z,2.90
2022-10-26T10:34:30.517Z,2.30
2022-10-26T10:35:30.497Z,2.40
2022-10-26T10:36:30.486Z,2.20
2022-10-26T10:37:30.477Z,2.50
2022-10-26T10:38:30.482Z,2.70
2022-10-26T10:39:30.457Z,2.40
2022-10-26T10:40:30.441Z,3.00
2022-10-26T10:41:30.435Z,2.50
2022-10-26T10:42:30.414Z,2.60
2022-10-26T10:43:30.405Z,2.30
2022-10-26T10:44:30.396Z,2.60
2022-10-26T10:45:30.388Z,2.40
2022-10-26T10:46:30.370Z,2.60
2022-10-26T10:47:30.431Z,2.20
2022-10-26T10:48:31.728Z,2.20
2022-10-26T10:49:30.336Z,2.40
2022-10-26T10:50:30.326Z,2.50
2022-10-26T10:51:30.311Z,2.30
2022-10-26T10:52:30.302Z,2.60
2022-10-26T10:53:30.290Z,2.80
2022-10-26T10:54:30.299Z,2.80
2022-10-26T10:55:30.262Z,3.20
2022-10-26T10:56:30.249Z,2.60
2022-10-26T10:57:30.237Z,2.60
2022-10-26T10:58:30.226Z,2.60
2022-10-26T10:59:30.223Z,2.60
2022-10-26T11:00:30.202Z,2.60
2022-10-26T11:01:30.308Z,2.50
2022-10-26T11:02:30.300Z,2.40
2022-10-26T11:03:30.167Z,2.50
2022-10-26T11:04:30.154Z,3.00
2022-10-26T11:05:30.139Z,2.40
2022-10-26T11:06:30.136Z,2.60
2022-10-26T11:07:30.114Z,2.60
2022-10-26T11:08:30.103Z,2.90
2022-10-26T11:09:30.092Z,2.60
2022-10-26T11:10:30.106Z,2.70
2022-10-26T11:11:30.069Z,2.30
2022-10-26T11:12:30.119Z,2.40
2022-10-26T11:13:30.050Z,2.70
2022-10-26T11:14:30.033Z,2.50
2022-10-26T11:15:30.024Z,2.40
2022-10-26T11:16:30.012Z,2.30
2022-10-26T11:17:29.999Z,2.80
2022-10-26T11:18:29.984Z,2.50
2022-10-26T11:19:29.975Z,2.60
2022-10-26T11:20:29.962Z,2.30
2022-10-26T11:21:29.972Z,2.40
2022-10-26T11:22:29.942Z,2.60
2022-10-26T11:23:29.933Z,2.40
2022-10-26T11:24:29.929Z,2.50
2022-10-26T11:25:29.908Z,2.50
2022-10-26T11:26:29.917Z,2.30
2022-10-26T11:27:29.888Z,2.30
2022-10-26T11:28:29.890Z,2.50
2022-10-26T11:29:31.749Z,2.50
2022-10-26T11:30:29.854Z,2.30
2022-10-26T11:31:29.845Z,2.20
2022-10-26T11:32:29.844Z,2.30
2022-10-26T11:33:29.830Z,2.50
2022-10-26T11:34:29.825Z,2.50
2022-10-26T11:35:29.806Z,2.10
2022-10-26T11:36:29.794Z,2.40
2022-10-26T11:37:29.877Z,2.40
2022-10-26T11:38:39.273Z,2.40
2022-10-26T11:39:29.768Z,2.30
2022-10-26T11:40:29.765Z,2.50
2022-10-26T11:41:29.751Z,2.50
2022-10-26T11:42:29.758Z,2.30
2022-10-26T11:43:29.724Z,2.60
2022-10-26T11:44:29.716Z,2.50
2022-10-26T11:45:29.706Z,2.40
2022-10-26T11:46:29.707Z,2.20
2022-10-26T11:47:29.682Z,2.20
2022-10-26T11:48:29.676Z,2.60
2022-10-26T11:49:29.672Z,2.30
2022-10-26T11:50:29.653Z,2.50
2022-10-26T11:51:29.638Z,2.00
2022-10-26T11:52:29.628Z,2.70
2022-10-26T11:53:29.622Z,2.70
2022-10-26T11:54:29.617Z,2.50
2022-10-26T11:55:29.603Z,2.60
2022-10-26T11:56:29.592Z,2.60
2022-10-26T11:57:29.583Z,2.20
2022-10-26T11:58:29.590Z,2.60
2022-10-26T11:59:33.081Z,2.40
2022-10-26T12:00:29.554Z,2.40
2022-10-26T12:01:29.636Z,2.40
2022-10-26T12:02:29.564Z,2.60
2022-10-26T12:03:29.522Z,2.50
2022-10-26T12:04:29.511Z,2.40
2022-10-26T12:05:29.499Z,2.30
2022-10-26T12:06:29.500Z,2.50
2022-10-26T12:07:29.482Z,2.60
2022-10-26T12:08:29.475Z,2.40
2022-10-26T12:09:32.143Z,2.50
2022-10-26T12:10:29.452Z,2.30
2022-10-26T12:11:29.437Z,2.80
2022-10-26T12:12:31.575Z,2.40
2022-10-26T12:13:29.416Z,2.50
2022-10-26T12:14:29.432Z,2.70
2022-10-26T12:15:40.080Z,2.60
2022-10-26T12:16:29.383Z,2.30
2022-10-26T12:17:29.382Z,2.50
2022-10-26T12:18:50.268Z,2.40
2022-10-26T12:19:29.357Z,2.60
2022-10-26T12:20:29.340Z,2.30
2022-10-26T12:21:29.330Z,2.20
2022-10-26T12:22:29.319Z,2.40
2022-10-26T12:23:40.391Z,2.60
2022-10-26T12:24:29.298Z,2.50
2022-10-26T12:25:29.291Z,2.70
2022-10-26T12:26:29.283Z,2.50
2022-10-26T12:27:29.261Z,2.10
2022-10-26T12:28:29.257Z,2.40
2022-10-26T12:29:29.244Z,2.00
2022-10-26T12:30:29.258Z,2.20
2022-10-26T12:32:29.211Z,2.70
2022-10-26T12:33:29.203Z,2.60
2022-10-26T12:34:29.186Z,2.50
2022-10-26T12:35:29.183Z,2.80
2022-10-26T12:36:29.171Z,2.30
2022-10-26T12:37:29.157Z,2.50
2022-10-26T12:38:31.714Z,2.40
2022-10-26T12:39:29.137Z,2.60
2022-10-26T12:40:29.119Z,2.40
2022-10-26T12:41:29.111Z,2.40
2022-10-26T12:42:29.101Z,2.60
2022-10-26T12:43:29.144Z,2.90
2022-10-26T12:44:29.079Z,2.60
2022-10-26T12:45:29.067Z,3.00
2022-10-26T12:46:29.078Z,2.90
2022-10-26T12:47:29.058Z,2.50
2022-10-26T12:48:38.935Z,2.80
2022-10-26T12:49:29.032Z,2.60
2022-10-26T12:50:29.013Z,2.60
2022-10-26T12:51:29.010Z,2.60
2022-10-26T12:52:29.005Z,2.70
2022-10-26T12:53:28.992Z,2.50
2022-10-26T12:54:28.975Z,2.60
2022-10-26T12:55:28.964Z,2.60
2022-10-26T12:56:28.954Z,2.90
2022-10-26T12:57:28.948Z,2.50
2022-10-26T12:58:28.930Z,2.40
2022-10-26T12:59:28.921Z,2.90
2022-10-26T13:00:28.992Z,3.50
2022-10-26T13:01:29.036Z,5.00
2022-10-26T13:02:28.911Z,6.40
2022-10-26T13:03:28.874Z,4.20
2022-10-26T13:04:28.865Z,3.70
2022-10-26T13:05:28.853Z,2.90
2022-10-26T13:06:28.842Z,2.70
2022-10-26T13:07:28.833Z,2.80
2022-10-26T13:08:28.826Z,2.50
2022-10-26T13:09:28.813Z,3.20
2022-10-26T13:10:28.803Z,2.70
2022-10-26T13:11:28.790Z,2.80
2022-10-26T13:12:28.778Z,2.70
2022-10-26T13:13:28.766Z,3.00
2022-10-26T13:14:28.755Z,2.60
2022-10-26T13:15:28.765Z,2.70
2022-10-26T13:16:28.732Z,3.30
2022-10-26T13:17:28.770Z,2.80
2022-10-26T13:18:28.733Z,3.10
2022-10-26T13:19:28.699Z,3.30
2022-10-26T13:20:28.685Z,2.60